createdAt,value
2023-02-06T00:03:14.485Z,6.47
2023-02-06T00:06:36.810Z,6.68
2023-02-06T00:09:59.097Z,3.80
2023-02-06T00:13:21.571Z,4.40
2023-02-06T00:16:43.758Z,5.03
2023-02-06T00:20:07.511Z,3.58
2023-02-06T00:23:29.811Z,3.45
2023-02-06T00:26:51.958Z,4.18
2023-02-06T00:30:14.398Z,2.47
2023-02-06T00:33:37.352Z,3.92
2023-02-06T00:36:59.593Z,3.55
2023-02-06T00:40:21.744Z,3.85
2023-02-06T00:43:43.948Z,4.38
2023-02-06T00:47:06.218Z,3.00
2023-02-06T00:50:28.506Z,3.88
2023-02-06T00:53:51.304Z,3.55
2023-02-06T00:57:14.791Z,3.50
2023-02-06T01:00:37.122Z,2.50
2023-02-06T01:03:59.426Z,2.60
2023-02-06T01:07:21.621Z,2.22
2023-02-06T01:10:44.726Z,2.92
2023-02-06T01:14:06.919Z,4.00
2023-02-06T01:17:30.715Z,3.20
2023-02-06T01:20:52.891Z,2.72
2023-02-06T01:24:15.124Z,2.72
2023-02-06T01:27:39.027Z,3.65
2023-02-06T01:31:01.448Z,5.00
2023-02-06T01:34:23.843Z,1.63
2023-02-06T01:37:46.124Z,2.80
2023-02-06T01:41:09.798Z,2.97
2023-02-06T01:44:33.628Z,2.60
2023-02-06T01:48:01.638Z,3.83
2023-02-06T01:51:26.706Z,2.55
2023-02-06T01:54:56.837Z,4.30
2023-02-06T01:58:27.834Z,4.40
2023-02-06T02:01:50.171Z,2.72
2023-02-06T02:05:13.993Z,3.60
2023-02-06T02:08:42.430Z,2.30
2023-02-06T02:12:04.810Z,3.42
2023-02-06T02:15:41.833Z,3.67
2023-02-06T02:19:21.151Z,4.25
2023-02-06T02:23:08.138Z,1.98
2023-02-06T02:27:12.358Z,2.00
2023-02-06T02:30:53.222Z,3.10
2023-02-06T02:34:50.287Z,2.97
2023-02-06T02:38:26.161Z,2.65
2023-02-06T02:41:59.927Z,2.28
2023-02-06T02:45:29.674Z,2.80
2023-02-06T02:48:54.713Z,1.98
2023-02-06T02:52:18.774Z,2.47
2023-02-06T02:55:41.668Z,2.67
2023-02-06T02:59:13.360Z,3.42
2023-02-06T03:02:39.725Z,3.67
2023-02-06T03:06:29.022Z,4.15
2023-02-06T03:10:03.761Z,3.33
2023-02-06T03:13:31.844Z,1.40
2023-02-06T03:17:04.350Z,2.92
2023-02-06T03:20:28.372Z,3.88
2023-02-06T03:23:53.791Z,3.47
2023-02-06T03:27:18.309Z,2.88
2023-02-06T03:30:42.673Z,1.87
2023-02-06T03:34:20.422Z,2.90
2023-02-06T03:37:43.194Z,2.30
2023-02-06T03:41:06.498Z,3.58
2023-02-06T03:44:36.273Z,4.88
2023-02-06T03:48:06.224Z,4.28
2023-02-06T03:51:40.430Z,2.10
2023-02-06T03:55:08.367Z,2.08
2023-02-06T03:58:30.977Z,4.43
2023-02-06T04:01:57.318Z,3.42
2023-02-06T04:05:19.940Z,3.58
2023-02-06T04:08:42.230Z,2.03
2023-02-06T04:12:04.643Z,3.28
2023-02-06T04:15:27.007Z,4.72
2023-02-06T04:18:49.303Z,2.13
2023-02-06T04:22:16.043Z,2.50
2023-02-06T04:25:38.506Z,2.78
2023-02-06T04:29:00.849Z,1.77
2023-02-06T04:32:23.290Z,3.78
2023-02-06T04:35:46.836Z,4.50
2023-02-06T04:39:09.236Z,2.90
2023-02-06T04:42:31.541Z,2.80
2023-02-06T04:45:53.806Z,3.55
2023-02-06T04:49:16.817Z,3.97
2023-02-06T04:52:39.075Z,3.08
2023-02-06T04:56:10.344Z,1.98
2023-02-06T04:59:32.600Z,3.58
2023-02-06T05:02:54.931Z,3.42
2023-02-06T05:06:17.677Z,2.17
2023-02-06T05:09:39.860Z,3.90
2023-02-06T05:13:02.063Z,2.83
2023-02-06T05:16:24.322Z,1.23
2023-02-06T05:19:46.839Z,1.88
2023-02-06T05:23:09.093Z,3.67
2023-02-06T05:26:31.373Z,3.55
2023-02-06T05:29:53.669Z,3.72
2023-02-06T05:33:16.018Z,3.08
2023-02-06T05:36:38.704Z,2.90
2023-02-06T05:40:00.930Z,2.47
2023-02-06T05:43:23.395Z,3.05
2023-02-06T05:46:48.344Z,2.70
2023-02-06T05:50:10.650Z,1.38
2023-02-06T05:53:33.163Z,3.17
2023-02-06T05:56:57.144Z,4.22
2023-02-06T06:00:19.693Z,3.92
2023-02-06T06:03:42.118Z,2.03
2023-02-06T06:07:04.752Z,1.67
2023-02-06T06:10:27.166Z,2.45
2023-02-06T06:13:49.657Z,2.13
2023-02-06T06:17:11.922Z,0.85
2023-02-06T06:20:34.140Z,2.53
2023-02-06T06:23:56.611Z,2.15
2023-02-06T06:27:18.937Z,1.95
2023-02-06T06:30:41.199Z,1.77
2023-02-06T06:34:03.410Z,4.40
2023-02-06T06:37:25.700Z,3.55
2023-02-06T06:40:48.101Z,1.02
2023-02-06T06:44:10.397Z,2.65
2023-02-06T06:47:32.634Z,3.60
2023-02-06T06:50:54.948Z,1.92
2023-02-06T06:54:19.492Z,3.20
2023-02-06T06:57:41.819Z,1.40
2023-02-06T07:01:05.184Z,3.90
2023-02-06T07:04:30.816Z,3.45
2023-02-06T07:07:53.155Z,1.98
2023-02-06T07:11:16.009Z,3.92
2023-02-06T07:14:39.894Z,2.70
2023-02-06T07:18:02.277Z,2.22
2023-02-06T07:21:24.546Z,3.58
2023-02-06T07:24:46.766Z,4.30
2023-02-06T07:28:09.357Z,2.13
2023-02-06T07:31:32.213Z,3.78
2023-02-06T07:34:54.506Z,1.85
2023-02-06T07:38:16.799Z,2.00
2023-02-06T07:41:39.094Z,1.92
2023-02-06T07:45:01.336Z,2.50
2023-02-06T07:48:23.605Z,3.03
2023-02-06T07:51:46.759Z,2.67
2023-02-06T07:55:10.208Z,4.70
2023-02-06T07:58:32.446Z,3.35
2023-02-06T08:01:54.752Z,9.63
2023-02-06T08:05:17.048Z,13.32
2023-02-06T08:08:39.462Z,8.68
2023-02-06T08:12:01.784Z,7.40
2023-02-06T08:15:25.226Z,7.13
2023-02-06T08:18:47.854Z,5.90
2023-02-06T08:22:10.128Z,5.13
2023-02-06T08:25:32.397Z,6.65
2023-02-06T08:28:56.415Z,6.93
2023-02-06T08:32:18.750Z,5.13
2023-02-06T08:35:41.032Z,5.60
2023-02-06T08:39:05.053Z,4.00
2023-02-06T08:42:27.277Z,3.97
2023-02-06T08:45:50.797Z,6.43
2023-02-06T08:49:21.530Z,6.30
2023-02-06T08:52:43.751Z,4.65
2023-02-06T08:56:12.173Z,8.68
2023-02-06T08:59:34.857Z,11.50
2023-02-06T09:02:57.459Z,6.05
2023-02-06T09:06:19.766Z,10.98
2023-02-06T09:09:42.017Z,6.45
2023-02-06T09:13:04.216Z,6.43
2023-02-06T09:16:27.723Z,4.88
2023-02-06T09:19:50.011Z,5.10
2023-02-06T09:23:12.277Z,5.20
2023-02-06T09:26:40.596Z,3.05
2023-02-06T09:30:07.743Z,4.03
2023-02-06T09:33:29.996Z,11.32
2023-02-06T09:36:54.459Z,3.00
2023-02-06T09:40:24.440Z,5.05
2023-02-06T09:43:57.344Z,4.85
2023-02-06T09:47:28.440Z,4.78
2023-02-06T09:51:20.728Z,5.78
2023-02-06T09:55:06.506Z,4.00
2023-02-06T09:58:47.273Z,5.60
2023-02-06T10:02:33.808Z,3.83
2023-02-06T10:06:14.601Z,2.55
2023-02-06T10:09:53.767Z,5.68
2023-02-06T10:13:19.018Z,5.28
2023-02-06T10:20:25.820Z,5.53
2023-02-06T10:24:02.682Z,5.07
2023-02-06T10:27:25.002Z,3.55
2023-02-06T10:30:55.784Z,3.65
2023-02-06T10:34:47.346Z,3.75
2023-02-06T10:38:38.830Z,3.63
2023-02-06T10:42:23.734Z,3.72
2023-02-06T10:46:09.128Z,4.50
2023-02-06T10:49:46.618Z,3.13
2023-02-06T10:53:33.985Z,4.18
2023-02-06T10:56:58.246Z,5.18
2023-02-06T11:00:26.030Z,5.65
2023-02-06T11:04:04.750Z,3.95
2023-02-06T11:08:16.447Z,5.25
2023-02-06T11:11:48.609Z,4.80
2023-02-06T11:15:23.025Z,5.35
2023-02-06T11:18:48.876Z,4.03
2023-02-06T11:22:15.747Z,3.70
2023-02-06T11:25:38.399Z,6.55
2023-02-06T11:29:14.278Z,2.25
2023-02-06T11:36:00.527Z,3.88
2023-02-06T11:39:32.207Z,5.15
2023-02-06T11:43:21.607Z,4.68
2023-02-06T11:46:43.888Z,2.97
2023-02-06T11:50:15.104Z,3.30
2023-02-06T11:53:38.122Z,3.83
2023-02-06T11:57:19.703Z,3.63
2023-02-06T12:00:56.880Z,3.85
2023-02-06T12:04:27.067Z,3.20
2023-02-06T12:08:02.289Z,5.65
2023-02-06T12:11:37.637Z,4.38
2023-02-06T12:15:43.713Z,1.95
2023-02-06T12:19:00.681Z,3.65
2023-02-06T12:22:24.678Z,7.40
2023-02-06T12:25:50.718Z,4.18
2023-02-06T12:29:27.755Z,3.15
2023-02-06T12:33:12.255Z,4.18
2023-02-06T12:36:39.812Z,4.85
2023-02-06T12:40:02.227Z,2.20
2023-02-06T12:43:24.731Z,3.63
2023-02-06T12:46:51.624Z,4.15
2023-02-06T12:50:16.503Z,2.42
2023-02-06T12:53:49.018Z,2.92
2023-02-06T12:57:23.752Z,2.50
2023-02-06T13:01:25.842Z,3.87
2023-02-06T13:04:52.143Z,2.67
2023-02-06T13:08:38.308Z,2.13
2023-02-06T13:12:07.511Z,6.45
2023-02-06T13:15:40.972Z,11.23
2023-02-06T13:19:04.347Z,4.30
2023-02-06T13:22:51.698Z,3.00
2023-02-06T13:26:13.897Z,5.68
2023-02-06T13:29:39.546Z,4.25
2023-02-06T13:33:23.970Z,5.53
2023-02-06T13:36:50.298Z,5.40
2023-02-06T13:40:25.775Z,4.80
2023-02-06T13:43:51.370Z,7.88
2023-02-06T13:47:48.443Z,2.75
2023-02-06T13:51:46.480Z,6.20
2023-02-06T13:55:23.441Z,2.90
2023-02-06T13:58:57.427Z,4.07
2023-02-06T14:02:23.797Z,4.22
2023-02-06T14:05:51.720Z,2.50
2023-02-06T14:09:57.485Z,3.60
2023-02-06T14:13:22.385Z,3.47
2023-02-06T14:17:05.874Z,3.88
2023-02-06T14:20:47.590Z,4.10
2023-02-06T14:24:38.123Z,3.60
2023-02-06T14:28:19.190Z,2.28
2023-02-06T14:31:50.373Z,5.95
2023-02-06T14:35:40.233Z,6.53
2023-02-06T14:39:30.582Z,2.88
2023-02-06T14:42:57.512Z,3.53
2023-02-06T14:46:20.344Z,2.50
2023-02-06T14:49:42.821Z,2.97
2023-02-06T14:53:32.649Z,3.35
2023-02-06T14:57:00.192Z,4.95
2023-02-06T15:00:23.151Z,4.50
2023-02-06T15:03:47.148Z,2.42
2023-02-06T15:07:29.674Z,1.60
2023-02-06T15:10:59.261Z,3.92
2023-02-06T15:14:27.563Z,3.08
2023-02-06T15:17:58.984Z,2.78
2023-02-06T15:21:21.463Z,2.17
2023-02-06T15:25:05.058Z,1.65
2023-02-06T15:28:36.144Z,3.67
2023-02-06T15:32:20.179Z,2.67
2023-02-06T15:35:49.677Z,3.63
2023-02-06T15:39:14.057Z,3.85
2023-02-06T15:42:37.046Z,3.17
2023-02-06T15:46:02.179Z,1.90
2023-02-06T15:49:43.383Z,3.40
2023-02-06T15:53:20.374Z,2.47
2023-02-06T15:56:48.179Z,1.65
2023-02-06T16:00:23.689Z,4.90
2023-02-06T16:07:23.746Z,2.28
2023-02-06T16:10:53.669Z,2.70
2023-02-06T16:14:31.076Z,2.38
2023-02-06T16:17:53.802Z,2.20
2023-02-06T16:21:15.981Z,5.07
2023-02-06T16:24:38.208Z,3.53
2023-02-06T16:28:00.698Z,1.27
2023-02-06T16:31:24.435Z,2.47
2023-02-06T16:34:47.623Z,2.10
2023-02-06T16:38:11.001Z,1.52
2023-02-06T16:41:38.925Z,1.60
2023-02-06T16:45:16.035Z,3.00
2023-02-06T16:48:38.229Z,2.17
2023-02-06T16:52:00.845Z,1.55
2023-02-06T16:55:25.608Z,1.73
2023-02-06T16:58:48.386Z,2.50
2023-02-06T17:02:13.051Z,4.18
2023-02-06T17:05:37.268Z,2.65
2023-02-06T17:09:05.081Z,3.20
2023-02-06T17:12:28.366Z,2.53
2023-02-06T17:15:55.156Z,3.60
2023-02-06T17:19:17.703Z,2.10
2023-02-06T17:22:39.902Z,2.00
2023-02-06T17:26:02.125Z,3.30
2023-02-06T17:29:25.123Z,1.27
2023-02-06T17:32:47.828Z,2.40
2023-02-06T17:36:26.849Z,2.05
2023-02-06T17:39:51.225Z,3.40
2023-02-06T17:43:13.494Z,2.20
2023-02-06T17:46:35.826Z,3.25
2023-02-06T17:49:58.174Z,2.90
2023-02-06T17:53:20.450Z,2.15
2023-02-06T17:56:42.719Z,3.30
2023-02-06T18:00:07.552Z,1.70
2023-02-06T18:03:30.665Z,1.35
2023-02-06T18:06:53.089Z,3.08
2023-02-06T18:10:15.570Z,1.83
2023-02-06T18:13:42.696Z,1.75
2023-02-06T18:17:04.982Z,1.40
2023-02-06T18:20:27.248Z,2.58
2023-02-06T18:23:49.538Z,1.83
2023-02-06T18:27:11.976Z,2.53
2023-02-06T18:30:34.987Z,2.42
2023-02-06T18:33:57.769Z,1.17
2023-02-06T18:37:19.965Z,1.90
2023-02-06T18:40:43.078Z,2.05
2023-02-06T18:44:08.703Z,2.10
2023-02-06T18:47:30.970Z,1.33
2023-02-06T18:50:54.331Z,1.30
2023-02-06T18:54:16.587Z,1.77
2023-02-06T18:57:39.245Z,2.03
2023-02-06T19:01:01.569Z,1.13
2023-02-06T19:04:24.168Z,2.17
2023-02-06T19:07:51.223Z,1.75
2023-02-06T19:11:13.555Z,1.48
2023-02-06T19:14:36.031Z,2.55
2023-02-06T19:17:59.396Z,1.45
2023-02-06T19:21:23.428Z,2.00
2023-02-06T19:24:45.765Z,2.47
2023-02-06T19:28:08.014Z,3.47
2023-02-06T19:31:31.936Z,2.45
2023-02-06T19:34:54.915Z,2.78
2023-02-06T19:38:17.170Z,1.45
2023-02-06T19:41:39.520Z,5.65
2023-02-06T19:45:03.016Z,4.88
2023-02-06T19:48:25.410Z,1.85
2023-02-06T19:51:48.854Z,2.10
2023-02-06T19:55:11.330Z,5.43
2023-02-06T19:58:33.639Z,3.67
2023-02-06T20:02:01.212Z,2.97
2023-02-06T20:05:27.212Z,5.47
2023-02-06T20:08:49.685Z,2.75
2023-02-06T20:12:12.575Z,3.65
2023-02-06T20:15:39.178Z,7.40
2023-02-06T20:19:23.134Z,35.55
2023-02-06T20:22:45.505Z,130.50
2023-02-06T20:26:07.734Z,230.73
2023-02-06T20:29:37.853Z,274.63
2023-02-06T20:33:00.545Z,290.77
2023-02-06T20:36:24.793Z,286.70
2023-02-06T20:39:47.190Z,288.52
2023-02-06T20:43:09.500Z,268.38
2023-02-06T20:46:32.706Z,258.63
2023-02-06T20:49:55.032Z,240.93
2023-02-06T20:53:17.214Z,235.20
2023-02-06T20:56:40.338Z,229.23
2023-02-06T21:00:05.647Z,216.55
2023-02-06T21:06:50.340Z,195.80
2023-02-06T21:10:12.625Z,195.55
2023-02-06T21:13:34.909Z,183.55
2023-02-06T21:16:57.720Z,176.40
2023-02-06T21:20:19.993Z,170.20
2023-02-06T21:23:43.278Z,167.68
2023-02-06T21:27:05.551Z,158.30
2023-02-06T21:30:27.853Z,158.45
2023-02-06T21:33:51.913Z,144.25
2023-02-06T21:37:14.499Z,138.82
2023-02-06T21:40:37.505Z,140.45
2023-02-06T21:43:59.775Z,131.50
2023-02-06T21:47:21.957Z,123.13
2023-02-06T21:50:44.870Z,125.65
2023-02-06T21:54:07.701Z,122.40
2023-02-06T21:57:30.566Z,111.80
2023-02-06T22:00:52.746Z,108.20
2023-02-06T22:04:15.105Z,98.95
2023-02-06T22:07:37.939Z,109.30
2023-02-06T22:11:00.223Z,100.80
2023-02-06T22:14:22.686Z,97.63
2023-02-06T22:17:44.956Z,93.43
2023-02-06T22:21:09.902Z,88.00
2023-02-06T22:24:32.185Z,87.05
2023-02-06T22:27:54.467Z,81.30
2023-02-06T22:31:18.610Z,79.93
2023-02-06T22:34:41.226Z,83.53
2023-02-06T22:38:03.447Z,71.93
2023-02-06T22:41:26.075Z,74.25
2023-02-06T22:44:50.351Z,73.03
2023-02-06T22:48:12.617Z,66.05
2023-02-06T22:51:36.463Z,60.13
2023-02-06T22:54:58.733Z,53.55
2023-02-06T22:58:20.981Z,63.50
2023-02-06T23:01:59.005Z,59.78
2023-02-06T23:05:21.327Z,55.03
2023-02-06T23:08:43.776Z,49.42
2023-02-06T23:12:06.795Z,49.17
2023-02-06T23:15:29.014Z,52.00
2023-02-06T23:18:51.665Z,46.00
2023-02-06T23:22:14.075Z,44.58
2023-02-06T23:25:44.188Z,42.13
2023-02-06T23:29:07.964Z,47.72
2023-02-06T23:32:30.504Z,39.92
2023-02-06T23:35:52.752Z,40.70
2023-02-06T23:39:15.121Z,37.67
2023-02-06T23:42:37.369Z,40.65
2023-02-06T23:45:59.847Z,39.78
2023-02-06T23:49:22.131Z,32.40
2023-02-06T23:52:44.759Z,32.17
2023-02-06T23:56:31.012Z,32.75
2023-02-06T23:59:53.323Z,28.73
